createdAt,value
2022-08-12T00:01:12.622Z,4.15
2022-08-12T00:03:58.772Z,3.13
2022-08-12T00:06:46.462Z,3.80
2022-08-12T00:09:32.456Z,3.77
2022-08-12T00:12:18.404Z,3.90
2022-08-12T00:15:04.636Z,4.03
2022-08-12T00:17:51.877Z,3.70
2022-08-12T00:20:37.987Z,3.47
2022-08-12T00:23:24.148Z,3.83
2022-08-12T00:26:22.495Z,3.40
2022-08-12T00:29:11.605Z,4.72
2022-08-12T00:31:58.646Z,3.27
2022-08-12T00:34:49.124Z,3.10
2022-08-12T00:37:39.243Z,3.30
2022-08-12T00:40:27.552Z,3.70
2022-08-12T00:42:56.092Z,2.55
2022-08-12T00:45:23.522Z,3.35
2022-08-12T00:47:53.325Z,3.90
2022-08-12T00:50:23.248Z,3.55
2022-08-12T00:52:52.882Z,3.70
2022-08-12T00:55:20.514Z,3.38
2022-08-12T00:57:50.836Z,4.65
2022-08-12T01:00:24.481Z,3.38
2022-08-12T01:02:55.676Z,4.75
2022-08-12T01:05:43.689Z,3.25
2022-08-12T01:08:29.438Z,3.17
2022-08-12T01:11:16.600Z,3.85
2022-08-12T01:13:50.929Z,3.42
2022-08-12T01:16:23.258Z,2.65
2022-08-12T01:18:53.083Z,3.22
2022-08-12T01:21:44.153Z,4.85
2022-08-12T01:24:49.061Z,2.88
2022-08-12T01:27:18.484Z,3.28
2022-08-12T01:29:48.959Z,4.53
2022-08-12T01:32:19.000Z,4.20
2022-08-12T01:35:14.041Z,2.95
2022-08-12T01:37:56.631Z,3.47
2022-08-12T01:40:37.934Z,3.53
2022-08-12T01:43:10.109Z,3.30
2022-08-12T01:46:08.570Z,2.88
2022-08-12T01:48:50.459Z,3.22
2022-08-12T01:52:21.022Z,3.90
2022-08-12T01:54:38.633Z,3.03
2022-08-12T01:57:06.053Z,3.97
2022-08-12T01:59:47.433Z,2.95
2022-08-12T02:02:22.275Z,4.00
2022-08-12T02:05:43.469Z,3.15
2022-08-12T02:08:41.520Z,3.00
2022-08-12T02:11:19.086Z,3.08
2022-08-12T02:13:50.846Z,3.97
2022-08-12T02:16:36.437Z,4.72
2022-08-12T02:19:38.799Z,2.92
2022-08-12T02:22:17.461Z,3.20
2022-08-12T02:24:49.086Z,3.63
2022-08-12T02:27:19.731Z,2.72
2022-08-12T02:29:48.270Z,2.70
2022-08-12T02:32:16.101Z,3.25
2022-08-12T02:34:45.135Z,2.55
2022-08-12T02:37:15.631Z,5.47
2022-08-12T02:39:49.614Z,4.15
2022-08-12T02:42:20.656Z,3.00
2022-08-12T02:44:52.335Z,4.00
2022-08-12T02:47:59.204Z,2.70
2022-08-12T02:50:14.717Z,2.72
2022-08-12T02:52:43.763Z,3.08
2022-08-12T02:55:34.083Z,2.03
2022-08-12T02:58:09.220Z,4.60
2022-08-12T03:00:41.606Z,3.03
2022-08-12T03:03:12.983Z,2.90
2022-08-12T03:06:13.311Z,1.90
2022-08-12T03:08:42.334Z,2.70
2022-08-12T03:11:42.798Z,3.87
2022-08-12T03:14:18.125Z,2.83
2022-08-12T03:16:50.345Z,3.50
2022-08-12T03:19:21.803Z,3.63
2022-08-12T03:22:09.105Z,2.27
2022-08-12T03:24:42.378Z,2.57
2022-08-12T03:27:14.385Z,2.72
2022-08-12T03:29:50.270Z,2.53
2022-08-12T03:32:35.627Z,2.40
2022-08-12T03:35:07.906Z,1.95
2022-08-12T03:37:37.329Z,3.33
2022-08-12T03:40:05.384Z,3.25
2022-08-12T03:42:40.866Z,2.75
2022-08-12T03:45:32.036Z,2.75
2022-08-12T03:48:32.673Z,2.55
2022-08-12T03:51:19.007Z,2.22
2022-08-12T03:54:05.148Z,1.95
2022-08-12T03:56:52.937Z,2.58
2022-08-12T03:59:38.726Z,2.00
2022-08-12T04:02:07.990Z,3.97
2022-08-12T04:04:36.691Z,1.98
2022-08-12T04:07:09.260Z,2.35
2022-08-12T04:09:40.364Z,4.05
2022-08-12T04:12:40.122Z,3.60
2022-08-12T04:15:18.603Z,3.20
2022-08-12T04:18:06.896Z,2.67
2022-08-12T04:20:36.605Z,2.20
2022-08-12T04:23:05.514Z,2.33
2022-08-12T04:25:37.514Z,3.30
2022-08-12T04:28:13.581Z,3.00
2022-08-12T04:30:42.013Z,4.88
2022-08-12T04:33:10.147Z,2.60
2022-08-12T04:35:38.707Z,4.35
2022-08-12T04:38:07.503Z,2.23
2022-08-12T04:40:39.692Z,3.45
2022-08-12T04:43:54.505Z,2.78
2022-08-12T04:45:55.913Z,2.80
2022-08-12T04:48:23.299Z,3.90
2022-08-12T04:50:50.911Z,2.47
2022-08-12T04:53:18.601Z,2.50
2022-08-12T04:55:47.861Z,3.45
2022-08-12T04:58:15.244Z,2.97
2022-08-12T05:00:57.543Z,2.38
2022-08-12T05:03:28.099Z,2.70
2022-08-12T05:05:59.188Z,3.33
2022-08-12T05:08:26.955Z,2.65
2022-08-12T05:10:54.566Z,3.45
2022-08-12T05:13:32.013Z,3.13
2022-08-12T05:16:04.858Z,2.63
2022-08-12T05:18:35.446Z,4.45
2022-08-12T05:21:08.384Z,2.95
2022-08-12T05:23:38.296Z,4.15
2022-08-12T05:26:06.249Z,3.75
2022-08-12T05:28:34.547Z,4.30
2022-08-12T05:31:02.612Z,5.30
2022-08-12T05:33:39.572Z,2.30
2022-08-12T05:36:08.590Z,5.80
2022-08-12T05:38:59.913Z,4.10
2022-08-12T05:41:32.839Z,12.73
2022-08-12T05:44:06.770Z,12.35
2022-08-12T05:46:36.012Z,16.27
2022-08-12T05:49:04.790Z,15.55
2022-08-12T05:51:40.271Z,17.92
2022-08-12T05:54:10.439Z,20.92
2022-08-12T05:56:38.055Z,15.23
2022-08-12T05:59:07.665Z,16.42
2022-08-12T06:02:12.395Z,19.33
2022-08-12T06:04:23.620Z,16.67
2022-08-12T06:06:53.560Z,8.70
2022-08-12T06:09:22.851Z,10.40
2022-08-12T06:12:04.710Z,10.20
2022-08-12T06:14:36.761Z,17.95
2022-08-12T06:17:05.980Z,18.70
2022-08-12T06:20:22.810Z,22.13
2022-08-12T06:22:20.825Z,12.52
2022-08-12T06:24:49.847Z,21.02
2022-08-12T06:27:19.065Z,15.90
2022-08-12T06:30:09.765Z,20.55
2022-08-12T06:32:34.586Z,19.83
2022-08-12T06:35:25.566Z,24.33
2022-08-12T06:37:56.446Z,13.95
2022-08-12T06:40:44.189Z,21.30
2022-08-12T06:43:13.181Z,20.20
2022-08-12T06:45:49.233Z,17.67
2022-08-12T06:48:17.384Z,15.57
2022-08-12T06:50:46.199Z,17.05
2022-08-12T06:53:13.595Z,20.30
2022-08-12T06:55:57.679Z,21.35
2022-08-12T06:58:26.755Z,15.93
2022-08-12T07:00:56.045Z,19.83
2022-08-12T07:03:30.161Z,16.67
2022-08-12T07:05:58.531Z,15.93
2022-08-12T07:08:29.318Z,16.83
2022-08-12T07:11:09.370Z,13.15
2022-08-12T07:14:02.442Z,15.18
2022-08-12T07:16:49.495Z,14.10
2022-08-12T07:19:17.325Z,12.27
2022-08-12T07:22:00.095Z,7.18
2022-08-12T07:24:30.579Z,9.93
2022-08-12T07:26:58.264Z,7.60
2022-08-12T07:29:58.035Z,12.55
2022-08-12T07:32:13.524Z,13.23
2022-08-12T07:34:42.350Z,8.90
2022-08-12T07:37:09.711Z,8.40
2022-08-12T07:39:37.281Z,7.75
2022-08-12T07:42:18.608Z,8.38
2022-08-12T07:44:47.223Z,7.63
2022-08-12T07:47:19.106Z,6.45
2022-08-12T07:50:05.874Z,6.80
2022-08-12T07:52:38.510Z,7.80
2022-08-12T07:55:06.751Z,7.88
2022-08-12T07:57:35.313Z,5.85
2022-08-12T08:00:05.623Z,4.63
2022-08-12T08:02:35.814Z,8.48
2022-08-12T08:05:04.476Z,4.63
2022-08-12T08:07:31.870Z,4.88
2022-08-12T08:10:05.050Z,5.47
2022-08-12T08:12:51.087Z,9.55
2022-08-12T08:15:20.201Z,4.85
2022-08-12T08:18:06.453Z,5.53
2022-08-12T08:20:38.066Z,5.32
2022-08-12T08:23:15.358Z,5.63
2022-08-12T08:25:43.565Z,4.35
2022-08-12T08:28:13.791Z,7.13
2022-08-12T08:30:44.397Z,5.15
2022-08-12T08:33:23.580Z,6.22
2022-08-12T08:36:02.948Z,6.10
2022-08-12T08:38:32.789Z,4.82
2022-08-12T08:42:16.226Z,6.07
2022-08-12T08:44:11.420Z,4.77
2022-08-12T08:46:40.479Z,4.40
2022-08-12T08:49:08.613Z,4.15
2022-08-12T08:51:36.523Z,5.18
2022-08-12T08:54:04.186Z,3.00
2022-08-12T08:56:31.580Z,4.55
2022-08-12T08:58:59.590Z,5.55
2022-08-12T09:01:37.329Z,7.63
2022-08-12T09:05:12.984Z,5.72
2022-08-12T09:06:56.719Z,3.78
2022-08-12T09:09:24.455Z,5.57
2022-08-12T09:12:23.735Z,4.47
2022-08-12T09:14:55.118Z,9.48
2022-08-12T09:17:22.641Z,3.28
2022-08-12T09:19:57.317Z,4.78
2022-08-12T09:22:29.167Z,5.00
2022-08-12T09:24:59.888Z,4.25
2022-08-12T09:30:16.633Z,4.80
2022-08-12T09:33:05.330Z,5.28
2022-08-12T09:35:44.227Z,4.03
2022-08-12T09:38:28.109Z,4.93
2022-08-12T09:42:07.395Z,5.05
2022-08-12T09:44:05.782Z,3.85
2022-08-12T09:46:34.474Z,7.90
2022-08-12T09:49:04.225Z,5.05
2022-08-12T09:51:44.119Z,3.03
2022-08-12T09:54:33.257Z,3.55
2022-08-12T09:58:07.953Z,1.90
2022-08-12T10:00:17.721Z,6.30
2022-08-12T10:02:42.516Z,5.43
2022-08-12T10:05:17.724Z,4.95
2022-08-12T10:07:47.579Z,1.35
2022-08-12T10:10:22.649Z,4.75
2022-08-12T10:13:35.843Z,6.50
2022-08-12T10:16:06.431Z,3.22
2022-08-12T10:18:37.361Z,4.70
2022-08-12T10:21:36.181Z,3.65
2022-08-12T10:24:09.453Z,4.83
2022-08-12T10:26:57.773Z,2.70
2022-08-12T10:30:38.976Z,2.80
2022-08-12T10:32:42.926Z,6.77
2022-08-12T10:35:13.508Z,2.83
2022-08-12T10:38:34.847Z,5.60
2022-08-12T10:40:32.980Z,7.53
2022-08-12T10:43:20.030Z,4.70
2022-08-12T10:45:58.347Z,5.38
2022-08-12T10:48:33.667Z,3.88
2022-08-12T10:52:04.435Z,3.40
2022-08-12T10:53:54.277Z,5.20
2022-08-12T10:56:34.698Z,3.30
2022-08-12T10:59:05.308Z,5.18
2022-08-12T11:04:17.287Z,5.65
2022-08-12T11:04:35.430Z,2.80
2022-08-12T11:08:36.920Z,2.95
2022-08-12T11:10:01.797Z,1.67
2022-08-12T11:12:56.675Z,3.10
2022-08-12T11:15:33.427Z,2.13
2022-08-12T11:18:18.393Z,3.35
2022-08-12T11:20:48.523Z,3.67
2022-08-12T11:23:25.149Z,2.22
2022-08-12T11:26:06.208Z,1.83
2022-08-12T11:28:37.130Z,2.15
2022-08-12T11:31:14.190Z,4.07
2022-08-12T11:34:04.208Z,2.08
2022-08-12T11:36:33.503Z,2.63
2022-08-12T11:39:07.810Z,2.72
2022-08-12T11:41:40.322Z,2.05
2022-08-12T11:44:36.519Z,2.53
2022-08-12T11:46:58.977Z,2.30
2022-08-12T11:49:32.330Z,2.95
2022-08-12T11:52:04.010Z,5.93
2022-08-12T11:54:32.109Z,2.30
2022-08-12T11:57:03.007Z,3.50
2022-08-12T12:02:37.152Z,2.70
2022-08-12T12:05:05.271Z,4.28
2022-08-12T12:08:35.904Z,3.53
2022-08-12T12:10:21.167Z,4.20
2022-08-12T12:12:49.778Z,4.40
2022-08-12T12:15:25.460Z,6.80
2022-08-12T12:18:06.106Z,1.33
2022-08-12T12:20:35.389Z,1.83
2022-08-12T12:23:03.996Z,3.67
2022-08-12T12:26:06.499Z,2.20
2022-08-12T12:28:35.268Z,7.83
2022-08-12T12:31:14.768Z,8.48
2022-08-12T12:33:57.691Z,2.13
2022-08-12T12:36:30.157Z,2.60
2022-08-12T12:39:00.039Z,4.20
2022-08-12T12:42:43.820Z,7.30
2022-08-12T12:44:25.935Z,4.15
2022-08-12T12:47:03.505Z,5.95
2022-08-12T12:49:30.853Z,7.38
2022-08-12T12:52:19.601Z,3.80
2022-08-12T12:54:52.778Z,5.82
2022-08-12T12:57:35.811Z,4.88
2022-08-12T13:00:17.383Z,3.63
2022-08-12T13:02:58.024Z,2.63
2022-08-12T13:05:28.279Z,5.22
2022-08-12T13:08:01.357Z,4.30
2022-08-12T13:10:36.867Z,3.95
2022-08-12T13:14:07.707Z,8.13
2022-08-12T13:15:54.059Z,2.72
2022-08-12T13:18:30.901Z,4.70
2022-08-12T13:20:59.342Z,3.33
2022-08-12T13:23:36.779Z,3.28
2022-08-12T13:26:05.763Z,5.53
2022-08-12T13:28:33.500Z,4.75
2022-08-12T13:31:01.748Z,4.50
2022-08-12T13:34:33.551Z,3.03
2022-08-12T13:36:20.412Z,4.45
2022-08-12T13:38:54.473Z,4.13
2022-08-12T13:41:34.116Z,1.58
2022-08-12T13:44:03.402Z,3.47
2022-08-12T13:46:31.326Z,5.00
2022-08-12T13:48:58.901Z,3.65
2022-08-12T13:51:26.986Z,1.60
2022-08-12T13:54:11.639Z,4.53
2022-08-12T13:56:41.435Z,5.55
2022-08-12T13:59:20.443Z,7.38
2022-08-12T14:01:54.302Z,8.20
2022-08-12T14:04:24.343Z,4.82
2022-08-12T14:06:54.339Z,6.30
2022-08-12T14:09:22.013Z,6.07
2022-08-12T14:11:59.104Z,5.83
2022-08-12T14:14:31.804Z,6.20
2022-08-12T14:17:10.401Z,5.00
2022-08-12T14:20:01.337Z,6.97
2022-08-12T14:22:30.390Z,8.48
2022-08-12T14:24:59.194Z,8.70
2022-08-12T14:28:03.865Z,4.97
2022-08-12T14:30:28.770Z,5.03
2022-08-12T14:32:57.710Z,4.20
2022-08-12T14:35:25.119Z,7.07
2022-08-12T14:37:55.899Z,7.20
2022-08-12T14:40:30.233Z,3.05
2022-08-12T14:43:02.705Z,6.05
2022-08-12T14:45:44.217Z,4.90
2022-08-12T14:48:18.727Z,6.15
2022-08-12T14:51:02.821Z,4.43
2022-08-12T14:59:56.295Z,5.70
2022-08-12T15:02:20.937Z,4.00
2022-08-12T15:04:56.193Z,6.53
2022-08-12T15:07:33.746Z,6.13
2022-08-12T15:10:13.392Z,6.82
2022-08-12T15:12:41.081Z,5.75
2022-08-12T15:15:10.555Z,5.57
2022-08-12T15:17:40.156Z,3.85
2022-08-12T15:20:31.791Z,4.13
2022-08-12T15:22:57.901Z,2.47
2022-08-12T15:25:27.130Z,3.55
2022-08-12T15:28:04.683Z,4.03
2022-08-12T15:30:34.706Z,3.00
2022-08-12T15:33:12.866Z,1.38
2022-08-12T15:35:50.167Z,1.83
2022-08-12T15:38:24.863Z,1.95
2022-08-12T15:40:54.163Z,1.40
2022-08-12T15:43:35.301Z,5.27
2022-08-12T15:46:15.019Z,5.20
2022-08-12T15:48:46.649Z,4.33
2022-08-12T15:51:58.186Z,3.35
2022-08-12T15:54:34.369Z,3.55
2022-08-12T15:57:05.825Z,3.75
2022-08-12T16:00:00.630Z,3.43
2022-08-12T16:02:26.837Z,3.55
2022-08-12T16:04:55.179Z,4.88
2022-08-12T16:07:25.889Z,3.67
2022-08-12T16:10:07.074Z,3.45
2022-08-12T16:12:43.340Z,6.10
2022-08-12T16:15:13.632Z,3.40
2022-08-12T16:18:18.068Z,3.20
2022-08-12T16:20:34.025Z,3.72
2022-08-12T16:23:51.102Z,3.42
2022-08-12T16:26:06.093Z,3.60
2022-08-12T16:28:42.732Z,2.50
2022-08-12T16:31:18.674Z,5.57
2022-08-12T16:33:59.285Z,2.90
2022-08-12T16:36:29.346Z,3.23
2022-08-12T16:38:56.851Z,4.07
2022-08-12T16:41:24.174Z,3.10
2022-08-12T16:43:53.464Z,4.10
2022-08-12T16:46:33.398Z,3.90
2022-08-12T16:49:04.162Z,4.68
2022-08-12T16:51:40.192Z,3.03
2022-08-12T16:54:13.983Z,3.13
2022-08-12T16:56:50.840Z,3.42
2022-08-12T16:59:22.897Z,3.35
2022-08-12T17:01:51.809Z,3.70
2022-08-12T17:04:19.636Z,2.90
2022-08-12T17:06:52.625Z,5.05
2022-08-12T17:09:19.962Z,3.90
2022-08-12T17:11:49.614Z,4.30
2022-08-12T17:14:20.273Z,3.30
2022-08-12T17:16:52.115Z,3.53
2022-08-12T17:19:20.625Z,3.08
2022-08-12T17:22:09.844Z,4.00
2022-08-12T17:24:44.119Z,2.80
2022-08-12T17:27:23.296Z,2.30
2022-08-12T17:30:01.192Z,3.10
2022-08-12T17:32:35.047Z,3.43
2022-08-12T17:35:21.607Z,4.23
2022-08-12T17:37:48.802Z,4.28
2022-08-12T17:40:35.255Z,3.55
2022-08-12T17:43:57.756Z,3.15
2022-08-12T17:45:59.032Z,4.05
2022-08-12T17:48:34.822Z,6.57
2022-08-12T17:51:16.007Z,4.43
2022-08-12T17:54:11.808Z,6.63
2022-08-12T17:56:37.270Z,5.63
2022-08-12T17:59:07.391Z,3.88
2022-08-12T18:01:36.530Z,3.90
2022-08-12T18:04:22.888Z,5.20
2022-08-12T18:06:55.865Z,5.13
2022-08-12T18:09:32.246Z,4.15
2022-08-12T18:12:24.543Z,3.28
2022-08-12T18:15:08.845Z,2.85
2022-08-12T18:17:39.673Z,4.10
2022-08-12T18:20:15.730Z,5.70
2022-08-12T18:22:45.081Z,2.53
2022-08-12T18:26:12.212Z,4.07
2022-08-12T18:28:28.994Z,3.17
2022-08-12T18:31:03.210Z,4.00
2022-08-12T18:33:41.690Z,3.50
2022-08-12T18:36:13.887Z,3.00
2022-08-12T18:38:44.976Z,3.72
2022-08-12T18:41:30.640Z,3.60
2022-08-12T18:44:09.807Z,2.58
2022-08-12T18:46:59.585Z,2.75
2022-08-12T18:49:39.377Z,3.35
2022-08-12T18:52:08.687Z,2.88
2022-08-12T18:54:54.048Z,3.50
2022-08-12T18:58:07.235Z,3.60
2022-08-12T19:00:22.159Z,3.63
2022-08-12T19:02:53.400Z,4.70
2022-08-12T19:05:23.358Z,3.53
2022-08-12T19:08:11.343Z,3.47
2022-08-12T19:10:42.990Z,3.63
2022-08-12T19:13:39.117Z,3.05
2022-08-12T19:16:12.467Z,3.53
2022-08-12T19:18:45.033Z,2.90
2022-08-12T19:21:15.917Z,2.47
2022-08-12T19:24:05.082Z,2.65
2022-08-12T19:26:35.781Z,3.05
2022-08-12T19:29:05.280Z,3.05
2022-08-12T19:31:56.593Z,2.78
2022-08-12T19:34:56.342Z,3.65
2022-08-12T19:38:02.737Z,2.55
2022-08-12T19:40:31.524Z,3.65
2022-08-12T19:43:18.922Z,2.83
2022-08-12T19:45:56.231Z,2.92
2022-08-12T19:48:30.513Z,3.58
2022-08-12T19:51:09.225Z,2.85
2022-08-12T19:53:57.892Z,3.80
2022-08-12T19:56:28.086Z,3.67
2022-08-12T19:59:19.227Z,3.60
2022-08-12T20:02:01.548Z,3.28
2022-08-12T20:04:38.834Z,3.78
2022-08-12T20:07:23.393Z,3.38
2022-08-12T20:09:53.767Z,3.80
2022-08-12T20:12:30.923Z,2.55
2022-08-12T20:15:05.202Z,2.60
2022-08-12T20:17:36.509Z,3.07
2022-08-12T20:20:21.129Z,2.05
2022-08-12T20:22:54.856Z,3.60
2022-08-12T20:25:28.252Z,2.65
2022-08-12T20:28:09.671Z,2.35
2022-08-12T20:30:53.401Z,2.45
2022-08-12T20:33:32.809Z,3.83
2022-08-12T20:36:41.077Z,2.20
2022-08-12T20:39:06.033Z,3.15
2022-08-12T20:41:58.592Z,4.18
2022-08-12T20:44:26.752Z,3.40
2022-08-12T20:46:56.044Z,3.00
2022-08-12T20:49:25.433Z,3.25
2022-08-12T20:51:57.993Z,2.85
2022-08-12T20:54:32.789Z,3.70
2022-08-12T20:57:08.791Z,3.53
2022-08-12T20:59:41.906Z,4.00
2022-08-12T21:02:15.368Z,2.90
2022-08-12T21:05:00.910Z,3.05
2022-08-12T21:07:28.967Z,2.17
2022-08-12T21:10:03.433Z,1.98
2022-08-12T21:12:34.288Z,2.53
2022-08-12T21:15:23.305Z,2.67
2022-08-12T21:18:09.705Z,2.55
2022-08-12T21:20:52.753Z,3.85
2022-08-12T21:23:25.402Z,1.92
2022-08-12T21:26:01.209Z,2.33
2022-08-12T21:28:31.178Z,2.75
2022-08-12T21:32:35.963Z,2.35
2022-08-12T21:34:07.855Z,2.15
2022-08-12T21:36:40.026Z,2.97
2022-08-12T21:39:21.036Z,3.33
2022-08-12T21:41:55.171Z,2.55
2022-08-12T21:45:44.271Z,2.55
2022-08-12T21:47:22.310Z,2.97
2022-08-12T21:50:02.957Z,2.20
2022-08-12T21:52:41.066Z,2.53
2022-08-12T21:55:18.196Z,2.30
2022-08-12T21:57:54.962Z,2.30
2022-08-12T22:00:35.089Z,2.70
2022-08-12T22:04:03.089Z,3.08
2022-08-12T22:06:30.764Z,2.20
2022-08-12T22:09:16.247Z,2.60
2022-08-12T22:11:56.311Z,2.33
2022-08-12T22:14:28.912Z,2.65
2022-08-12T22:16:57.524Z,2.42
2022-08-12T22:19:24.929Z,2.42
2022-08-12T22:21:56.194Z,2.97
2022-08-12T22:24:30.024Z,2.03
2022-08-12T22:27:14.499Z,2.58
2022-08-12T22:30:16.850Z,2.63
2022-08-12T22:32:51.493Z,3.00
2022-08-12T22:35:56.393Z,2.40
2022-08-12T22:38:25.110Z,3.10
2022-08-12T22:41:00.731Z,2.67
2022-08-12T22:44:00.469Z,2.37
2022-08-12T22:46:52.677Z,2.05
2022-08-12T22:49:36.899Z,2.40
2022-08-12T22:52:18.527Z,2.60
2022-08-12T22:55:03.375Z,2.75
2022-08-12T22:57:54.010Z,2.63
2022-08-12T23:00:24.035Z,2.40
2022-08-12T23:02:51.992Z,1.80
2022-08-12T23:05:57.680Z,2.28
2022-08-12T23:08:13.923Z,2.45
2022-08-12T23:10:46.454Z,2.67
2022-08-12T23:13:43.776Z,1.38
2022-08-12T23:16:28.031Z,2.40
2022-08-12T23:19:01.588Z,2.28
2022-08-12T23:22:04.197Z,2.50
2022-08-12T23:24:26.867Z,2.42
2022-08-12T23:27:13.040Z,1.75
2022-08-12T23:29:43.778Z,1.80
2022-08-12T23:32:36.352Z,2.25
2022-08-12T23:35:07.122Z,2.65
2022-08-12T23:37:47.327Z,2.03
2022-08-12T23:40:22.387Z,2.65
2022-08-12T23:42:54.908Z,2.53
2022-08-12T23:45:30.921Z,2.20
2022-08-12T23:48:01.280Z,2.25
2022-08-12T23:50:33.747Z,2.95
2022-08-12T23:53:06.638Z,2.30
2022-08-12T23:55:49.909Z,2.08
2022-08-12T23:58:23.301Z,2.60
